createdAt,value
2023-05-25T00:01:03.166Z,13.34
2023-05-25T00:04:50.900Z,13.27
2023-05-25T00:08:34.287Z,13.29
2023-05-25T00:12:21.204Z,13.29
2023-05-25T00:16:07.968Z,13.33
2023-05-25T00:19:53.324Z,13.47
2023-05-25T00:23:38.425Z,13.46
2023-05-25T00:27:24.052Z,13.50
2023-05-25T00:31:11.959Z,13.58
2023-05-25T00:33:43.148Z,13.45
2023-05-25T00:37:57.608Z,13.63
2023-05-25T00:41:05.978Z,13.65
2023-05-25T00:44:48.698Z,13.65
2023-05-25T00:48:31.347Z,13.65
2023-05-25T00:52:14.147Z,13.66
2023-05-25T00:55:57.249Z,13.57
2023-05-25T00:59:41.550Z,13.52
2023-05-25T01:03:27.950Z,13.49
2023-05-25T01:07:12.841Z,13.44
2023-05-25T01:10:59.393Z,13.34
2023-05-25T01:14:42.343Z,13.20
2023-05-25T01:18:25.018Z,13.18
2023-05-25T01:22:08.948Z,13.04
2023-05-25T01:25:51.958Z,12.99
2023-05-25T01:29:37.503Z,13.01
2023-05-25T01:33:20.967Z,12.81
2023-05-25T01:37:03.866Z,12.77
2023-05-25T01:40:46.651Z,12.81
2023-05-25T01:43:14.130Z,12.75
2023-05-25T01:45:41.766Z,12.77
2023-05-25T01:48:53.736Z,12.71
2023-05-25T01:52:19.484Z,12.49
2023-05-25T01:55:01.759Z,12.60
2023-05-25T01:57:34.361Z,12.56
2023-05-25T02:00:04.534Z,12.56
2023-05-25T02:02:45.941Z,12.51
2023-05-25T02:05:14.614Z,12.56
2023-05-25T02:07:41.974Z,12.41
2023-05-25T02:10:09.954Z,12.48
2023-05-25T02:12:37.760Z,12.41
2023-05-25T02:15:06.241Z,12.32
2023-05-25T02:17:33.672Z,12.29
2023-05-25T02:20:01.261Z,12.26
2023-05-25T02:22:29.655Z,12.32
2023-05-25T02:24:57.605Z,12.15
2023-05-25T02:27:24.936Z,12.15
2023-05-25T02:29:53.604Z,12.16
2023-05-25T02:32:21.351Z,12.13
2023-05-25T02:34:49.171Z,12.14
2023-05-25T02:37:17.983Z,12.21
2023-05-25T02:39:45.342Z,12.20
2023-05-25T02:42:12.572Z,11.99
2023-05-25T02:44:39.742Z,11.89
2023-05-25T02:47:07.645Z,11.97
2023-05-25T02:49:34.939Z,12.09
2023-05-25T02:52:02.423Z,12.14
2023-05-25T02:54:30.283Z,12.24
2023-05-25T02:56:58.528Z,12.33
2023-05-25T02:59:25.864Z,12.36
2023-05-25T03:01:53.141Z,12.27
2023-05-25T03:04:21.868Z,12.12
2023-05-25T03:06:49.294Z,12.17
2023-05-25T03:09:19.284Z,12.14
2023-05-25T03:11:49.822Z,12.31
2023-05-25T03:14:20.359Z,12.36
2023-05-25T03:16:59.750Z,12.25
2023-05-25T03:19:27.948Z,12.30
2023-05-25T03:21:59.784Z,12.33
2023-05-25T03:24:28.866Z,12.35
2023-05-25T03:26:59.960Z,12.34
2023-05-25T03:29:27.238Z,12.29
2023-05-25T03:32:07.853Z,12.26
2023-05-25T03:34:37.345Z,12.25
2023-05-25T03:37:06.194Z,12.31
2023-05-25T03:39:33.447Z,12.23
2023-05-25T03:42:00.949Z,12.26
2023-05-25T03:44:28.195Z,12.21
2023-05-25T03:46:55.356Z,12.26
2023-05-25T03:49:22.498Z,12.30
2023-05-25T03:51:50.265Z,12.39
2023-05-25T03:54:17.561Z,12.50
2023-05-25T03:56:44.881Z,12.59
2023-05-25T03:59:12.442Z,12.57
2023-05-25T04:01:40.939Z,12.71
2023-05-25T04:04:08.313Z,12.67
2023-05-25T04:07:52.778Z,12.83
2023-05-25T04:10:20.412Z,12.80
2023-05-25T04:12:47.837Z,12.95
2023-05-25T04:15:17.111Z,12.91
2023-05-25T04:17:59.482Z,12.85
2023-05-25T04:20:27.001Z,12.93
2023-05-25T04:22:56.833Z,12.95
2023-05-25T04:26:40.231Z,12.98
2023-05-25T04:29:13.667Z,12.96
2023-05-25T04:31:59.370Z,12.97
2023-05-25T04:34:53.508Z,13.00
2023-05-25T04:37:27.218Z,13.02
2023-05-25T04:39:57.713Z,13.16
2023-05-25T04:42:26.834Z,13.23
2023-05-25T04:44:59.503Z,13.26
2023-05-25T04:47:26.865Z,13.43
2023-05-25T04:49:55.277Z,13.35
2023-05-25T04:53:39.163Z,13.54
2023-05-25T04:57:22.388Z,13.66
2023-05-25T04:59:50.300Z,13.38
2023-05-25T05:02:18.864Z,13.33
2023-05-25T05:04:46.652Z,13.24
2023-05-25T05:08:29.734Z,13.40
2023-05-25T05:10:57.877Z,13.37
2023-05-25T05:13:26.904Z,13.43
2023-05-25T05:15:55.295Z,13.63
2023-05-25T05:18:25.139Z,13.78
2023-05-25T05:20:53.790Z,13.86
2023-05-25T05:23:21.992Z,13.98
2023-05-25T05:25:50.480Z,14.08
2023-05-25T05:28:17.920Z,14.21
2023-05-25T05:30:47.499Z,14.11
2023-05-25T05:33:15.166Z,14.21
2023-05-25T05:35:47.171Z,14.21
2023-05-25T05:38:21.411Z,14.22
2023-05-25T05:40:48.889Z,14.10
2023-05-25T05:43:21.018Z,14.19
2023-05-25T05:45:48.251Z,14.40
2023-05-25T05:48:16.200Z,14.24
2023-05-25T05:50:43.517Z,14.12
2023-05-25T05:53:13.535Z,14.23
2023-05-25T05:55:41.325Z,14.52
2023-05-25T05:58:08.801Z,14.36
2023-05-25T06:00:36.367Z,14.40
2023-05-25T06:03:03.859Z,14.28
2023-05-25T06:05:31.705Z,14.42
2023-05-25T06:08:01.005Z,14.68
2023-05-25T06:10:28.980Z,14.88
2023-05-25T06:12:56.398Z,15.21
2023-05-25T06:15:23.794Z,15.45
2023-05-25T06:17:55.170Z,15.54
2023-05-25T06:20:23.066Z,15.75
2023-05-25T06:22:50.441Z,15.77
2023-05-25T06:25:17.550Z,15.64
2023-05-25T06:27:45.464Z,15.82
2023-05-25T06:30:13.846Z,16.03
2023-05-25T06:32:43.350Z,16.25
2023-05-25T06:35:17.440Z,16.39
2023-05-25T06:37:47.138Z,16.60
2023-05-25T06:40:16.429Z,16.79
2023-05-25T06:42:44.221Z,16.98
2023-05-25T06:45:31.515Z,17.01
2023-05-25T06:48:00.187Z,17.22
2023-05-25T06:50:27.499Z,17.47
2023-05-25T06:52:54.777Z,17.78
2023-05-25T06:55:21.979Z,18.06
2023-05-25T06:57:49.178Z,18.16
2023-05-25T07:00:17.532Z,18.29
2023-05-25T07:02:44.844Z,18.55
2023-05-25T07:05:12.305Z,18.59
2023-05-25T07:07:39.518Z,18.63
2023-05-25T07:10:08.367Z,18.61
2023-05-25T07:12:35.760Z,18.51
2023-05-25T07:15:03.004Z,18.51
2023-05-25T07:17:31.451Z,18.58
2023-05-25T07:19:58.935Z,18.90
2023-05-25T07:22:26.814Z,18.97
2023-05-25T07:24:54.128Z,19.21
2023-05-25T07:27:21.287Z,19.33
2023-05-25T07:29:48.384Z,19.43
2023-05-25T07:32:15.586Z,19.71
2023-05-25T07:34:43.222Z,19.81
2023-05-25T07:37:10.987Z,20.00
2023-05-25T07:39:40.474Z,20.07
2023-05-25T07:42:07.973Z,20.22
2023-05-25T07:44:35.276Z,20.34
2023-05-25T07:47:02.486Z,20.63
2023-05-25T07:49:29.727Z,20.79
2023-05-25T07:51:57.170Z,20.35
2023-05-25T07:54:24.903Z,20.46
2023-05-25T07:56:52.248Z,20.74
2023-05-25T07:59:19.493Z,20.74
2023-05-25T08:01:46.840Z,20.72
2023-05-25T08:04:14.548Z,20.75
2023-05-25T08:06:44.132Z,20.76
2023-05-25T08:09:13.238Z,20.71
2023-05-25T08:11:40.572Z,20.73
2023-05-25T08:14:07.754Z,20.78
2023-05-25T08:16:35.018Z,20.81
2023-05-25T08:19:02.571Z,20.88
2023-05-25T08:21:29.851Z,20.90
2023-05-25T08:23:57.445Z,20.90
2023-05-25T08:26:41.270Z,20.70
2023-05-25T08:29:12.683Z,20.73
2023-05-25T08:31:41.978Z,20.68
2023-05-25T08:34:09.510Z,20.34
2023-05-25T08:36:37.706Z,20.45
2023-05-25T08:39:04.858Z,20.56
2023-05-25T08:41:36.035Z,20.79
2023-05-25T08:44:06.440Z,20.14
2023-05-25T08:46:33.709Z,20.26
2023-05-25T08:49:21.062Z,20.78
2023-05-25T08:51:54.680Z,20.94
2023-05-25T08:54:38.367Z,21.16
2023-05-25T08:57:11.604Z,21.39
2023-05-25T09:00:10.963Z,21.73
2023-05-25T09:03:11.202Z,21.75
2023-05-25T09:05:39.125Z,21.94
2023-05-25T09:08:08.678Z,21.93
2023-05-25T09:10:38.341Z,21.74
2023-05-25T09:13:20.269Z,21.90
2023-05-25T09:15:50.596Z,22.01
2023-05-25T09:18:17.976Z,21.90
2023-05-25T09:20:47.273Z,22.43
2023-05-25T09:23:17.398Z,22.40
2023-05-25T09:25:50.549Z,22.49
2023-05-25T09:30:51.240Z,22.48
2023-05-25T09:33:18.623Z,22.97
2023-05-25T09:35:48.189Z,22.30
2023-05-25T09:38:17.387Z,23.28
2023-05-25T09:40:45.752Z,22.91
2023-05-25T09:43:28.372Z,23.68
2023-05-25T09:46:00.147Z,23.18
2023-05-25T09:48:29.244Z,23.25
2023-05-25T09:50:56.900Z,23.13
2023-05-25T09:53:24.115Z,22.68
2023-05-25T09:55:54.124Z,22.37
2023-05-25T09:58:25.112Z,22.44
2023-05-25T10:00:55.838Z,23.05
2023-05-25T10:03:23.133Z,22.47
2023-05-25T10:05:52.308Z,23.40
2023-05-25T10:08:22.022Z,23.76
2023-05-25T10:10:50.834Z,24.20
2023-05-25T10:13:25.370Z,24.59
2023-05-25T10:15:54.813Z,24.76
2023-05-25T10:18:32.099Z,25.02
2023-05-25T10:21:05.435Z,25.36
2023-05-25T10:23:48.582Z,25.83
2023-05-25T10:26:21.900Z,26.11
2023-05-25T10:28:56.833Z,26.17
2023-05-25T10:31:28.317Z,26.31
2023-05-25T10:33:57.351Z,25.91
2023-05-25T10:36:27.887Z,26.15
2023-05-25T10:38:56.315Z,26.71
2023-05-25T10:41:23.800Z,26.67
2023-05-25T10:43:53.429Z,25.64
2023-05-25T10:46:22.122Z,25.34
2023-05-25T10:48:52.740Z,26.01
2023-05-25T10:51:21.746Z,26.60
2023-05-25T10:54:04.314Z,27.03
2023-05-25T10:56:32.068Z,25.91
2023-05-25T10:59:00.352Z,24.97
2023-05-25T11:01:30.987Z,26.27
2023-05-25T11:04:17.327Z,26.90
2023-05-25T11:06:48.061Z,27.15
2023-05-25T11:09:33.098Z,27.55
2023-05-25T11:12:02.393Z,27.65
2023-05-25T11:14:32.688Z,28.09
2023-05-25T11:17:16.472Z,28.64
2023-05-25T11:19:51.977Z,28.80
2023-05-25T11:22:37.714Z,28.63
2023-05-25T11:25:36.754Z,28.78
2023-05-25T11:28:10.725Z,27.09
2023-05-25T11:30:42.108Z,27.76
2023-05-25T11:33:10.280Z,27.55
2023-05-25T11:35:38.316Z,27.52
2023-05-25T11:38:08.137Z,26.67
2023-05-25T11:40:39.341Z,26.15
2023-05-25T11:43:09.749Z,25.32
2023-05-25T11:45:38.511Z,26.48
2023-05-25T11:48:06.507Z,26.62
2023-05-25T11:50:34.549Z,27.40
2023-05-25T11:53:07.329Z,27.04
2023-05-25T11:55:35.550Z,26.81
2023-05-25T11:58:03.846Z,26.43
2023-05-25T12:03:10.491Z,26.62
2023-05-25T12:05:41.637Z,28.12
2023-05-25T12:08:09.527Z,28.34
2023-05-25T12:10:51.762Z,28.61
2023-05-25T12:13:22.407Z,27.65
2023-05-25T12:15:50.587Z,27.93
2023-05-25T12:18:18.593Z,28.52
2023-05-25T12:20:46.913Z,28.90
2023-05-25T12:23:17.657Z,30.83
2023-05-25T12:25:50.836Z,30.20
2023-05-25T12:28:19.583Z,30.57
2023-05-25T12:30:47.396Z,30.39
2023-05-25T12:33:15.655Z,31.07
2023-05-25T12:35:49.042Z,31.64
2023-05-25T12:38:24.017Z,32.09
2023-05-25T12:41:08.421Z,31.82
2023-05-25T12:43:40.560Z,31.36
2023-05-25T12:46:08.711Z,30.80
2023-05-25T12:48:36.925Z,29.58
2023-05-25T12:51:06.322Z,29.79
2023-05-25T12:53:55.267Z,32.02
2023-05-25T12:56:23.025Z,34.32
2023-05-25T12:58:50.636Z,35.69
2023-05-25T13:01:18.340Z,30.85
2023-05-25T13:03:45.984Z,31.27
2023-05-25T13:06:13.743Z,31.55
2023-05-25T13:08:41.356Z,31.74
2023-05-25T13:11:08.894Z,31.62
2023-05-25T13:13:37.377Z,31.48
2023-05-25T13:16:05.287Z,30.30
2023-05-25T13:18:32.961Z,30.75
2023-05-25T13:21:01.102Z,28.19
2023-05-25T13:23:28.873Z,29.27
2023-05-25T13:25:56.520Z,29.73
2023-05-25T13:28:24.252Z,29.89
2023-05-25T13:30:51.869Z,30.09
2023-05-25T13:33:19.510Z,30.38
2023-05-25T13:36:07.742Z,32.22
2023-05-25T13:38:36.946Z,34.59
2023-05-25T13:41:05.337Z,35.43
2023-05-25T13:43:33.126Z,35.35
2023-05-25T13:46:00.829Z,34.99
2023-05-25T13:48:29.935Z,32.94
2023-05-25T13:50:57.807Z,31.57
2023-05-25T13:53:25.557Z,31.18
2023-05-25T13:55:53.429Z,31.03
2023-05-25T13:58:21.761Z,30.66
2023-05-25T14:00:49.626Z,31.65
2023-05-25T14:03:17.445Z,32.18
2023-05-25T14:05:45.379Z,32.17
2023-05-25T14:08:13.805Z,31.79
2023-05-25T14:10:44.130Z,32.40
2023-05-25T14:13:11.852Z,33.21
2023-05-25T14:15:39.491Z,32.83
2023-05-25T14:18:07.160Z,32.96
2023-05-25T14:20:37.316Z,32.74
2023-05-25T14:23:05.526Z,32.61
2023-05-25T14:25:33.553Z,32.50
2023-05-25T14:28:01.452Z,32.44
2023-05-25T14:30:29.175Z,34.04
2023-05-25T14:32:56.843Z,35.41
2023-05-25T14:35:24.535Z,36.79
2023-05-25T14:37:52.335Z,37.96
2023-05-25T14:40:20.899Z,38.10
2023-05-25T14:42:48.712Z,37.33
2023-05-25T14:45:16.389Z,36.96
2023-05-25T14:47:44.385Z,36.13
2023-05-25T14:50:12.097Z,35.63
2023-05-25T14:52:39.880Z,31.68
2023-05-25T14:55:09.108Z,31.77
2023-05-25T14:57:37.258Z,32.02
2023-05-25T15:00:05.460Z,31.79
2023-05-25T15:02:34.092Z,31.88
2023-05-25T15:05:02.247Z,33.00
2023-05-25T15:07:30.393Z,33.58
2023-05-25T15:09:58.031Z,34.67
2023-05-25T15:12:25.927Z,34.22
2023-05-25T15:14:53.662Z,33.50
2023-05-25T15:17:21.271Z,33.04
2023-05-25T15:19:48.958Z,32.58
2023-05-25T15:22:16.771Z,32.49
2023-05-25T15:24:44.635Z,33.06
2023-05-25T15:27:12.505Z,35.01
2023-05-25T15:29:40.121Z,34.95
2023-05-25T15:32:09.767Z,36.06
2023-05-25T15:34:37.511Z,36.74
2023-05-25T15:37:05.317Z,35.73
2023-05-25T15:39:32.994Z,34.03
2023-05-25T15:42:01.405Z,33.29
2023-05-25T15:44:30.263Z,34.02
2023-05-25T15:46:58.092Z,35.84
2023-05-25T15:49:25.690Z,37.40
2023-05-25T15:51:53.768Z,38.65
2023-05-25T15:54:21.438Z,39.43
2023-05-25T15:56:49.126Z,39.70
2023-05-25T15:59:16.780Z,39.88
2023-05-25T16:01:44.442Z,40.17
2023-05-25T16:04:12.209Z,39.63
2023-05-25T16:06:39.894Z,39.69
2023-05-25T16:09:07.577Z,38.73
2023-05-25T16:11:35.525Z,38.18
2023-05-25T16:14:03.186Z,37.19
2023-05-25T16:16:30.954Z,36.23
2023-05-25T16:18:58.953Z,34.97
2023-05-25T16:21:26.758Z,34.09
2023-05-25T16:23:54.498Z,32.92
2023-05-25T16:26:22.457Z,32.13
2023-05-25T16:28:50.116Z,31.98
2023-05-25T16:31:17.850Z,31.55
2023-05-25T16:33:46.205Z,30.97
2023-05-25T16:36:14.214Z,30.66
2023-05-25T16:38:41.916Z,30.52
2023-05-25T16:41:10.103Z,30.48
2023-05-25T16:43:38.254Z,30.03
2023-05-25T16:46:06.494Z,29.87
2023-05-25T16:48:34.204Z,29.68
2023-05-25T16:51:07.426Z,29.28
2023-05-25T16:53:35.132Z,28.96
2023-05-25T16:56:02.775Z,28.85
2023-05-25T16:58:30.934Z,28.76
2023-05-25T17:00:58.706Z,28.45
2023-05-25T17:03:26.480Z,28.44
2023-05-25T17:05:54.282Z,28.29
2023-05-25T17:08:21.834Z,28.11
2023-05-25T17:10:50.042Z,28.10
2023-05-25T17:13:18.401Z,27.85
2023-05-25T17:15:46.389Z,27.94
2023-05-25T17:18:14.906Z,27.84
2023-05-25T17:20:42.744Z,27.69
2023-05-25T17:23:18.797Z,27.66
2023-05-25T17:25:47.143Z,27.54
2023-05-25T17:28:14.947Z,27.49
2023-05-25T17:30:42.510Z,27.34
2023-05-25T17:33:10.182Z,27.28
2023-05-25T17:35:37.809Z,27.23
2023-05-25T17:38:05.446Z,27.19
2023-05-25T17:40:33.103Z,26.95
2023-05-25T17:43:00.841Z,26.74
2023-05-25T17:45:28.501Z,26.59
2023-05-25T17:47:57.254Z,26.56
2023-05-25T17:50:25.581Z,26.39
2023-05-25T17:52:53.262Z,26.35
2023-05-25T17:55:23.256Z,26.22
2023-05-25T17:57:50.951Z,26.10
2023-05-25T18:00:28.053Z,26.07
2023-05-25T18:02:55.890Z,26.01
2023-05-25T18:05:23.580Z,25.87
2023-05-25T18:07:51.245Z,25.78
2023-05-25T18:10:18.870Z,25.72
2023-05-25T18:12:49.122Z,25.68
2023-05-25T18:15:16.764Z,25.38
2023-05-25T18:17:44.553Z,25.21
2023-05-25T18:20:12.583Z,24.99
2023-05-25T18:22:41.266Z,25.12
2023-05-25T18:25:09.429Z,25.03
2023-05-25T18:27:37.028Z,24.88
2023-05-25T18:30:05.321Z,24.73
2023-05-25T18:32:33.021Z,24.71
2023-05-25T18:35:05.721Z,24.61
2023-05-25T18:37:35.624Z,24.52
2023-05-25T18:40:04.208Z,24.32
2023-05-25T18:42:31.915Z,24.36
2023-05-25T18:44:59.540Z,24.17
2023-05-25T18:47:27.704Z,24.07
2023-05-25T18:49:55.725Z,24.02
2023-05-25T18:52:23.517Z,23.90
2023-05-25T18:54:51.212Z,23.85
2023-05-25T18:57:18.829Z,23.76
2023-05-25T18:59:46.604Z,23.61
2023-05-25T19:02:14.215Z,23.55
2023-05-25T19:04:41.892Z,23.42
2023-05-25T19:07:09.551Z,23.35
2023-05-25T19:09:37.472Z,23.24
2023-05-25T19:12:07.275Z,23.16
2023-05-25T19:14:34.931Z,22.93
2023-05-25T19:17:02.578Z,22.90
2023-05-25T19:19:30.130Z,22.79
2023-05-25T19:22:01.069Z,22.70
2023-05-25T19:24:28.815Z,22.57
2023-05-25T19:26:56.430Z,22.42
2023-05-25T19:29:24.062Z,22.36
2023-05-25T19:31:51.705Z,22.31
2023-05-25T19:34:19.351Z,22.24
2023-05-25T19:36:48.242Z,22.17
2023-05-25T19:39:21.204Z,22.08
2023-05-25T19:41:48.963Z,21.94
2023-05-25T19:44:16.607Z,21.90
2023-05-25T19:46:44.324Z,21.79
2023-05-25T19:49:12.301Z,21.84
2023-05-25T19:51:40.139Z,21.76
2023-05-25T19:54:09.716Z,21.66
2023-05-25T19:56:37.490Z,21.55
2023-05-25T19:59:05.141Z,21.57
2023-05-25T20:01:32.829Z,21.43
2023-05-25T20:04:01.658Z,21.41
2023-05-25T20:06:29.227Z,21.35
2023-05-25T20:08:56.848Z,21.35
2023-05-25T20:11:24.588Z,21.29
2023-05-25T20:13:52.189Z,21.23
2023-05-25T20:16:19.969Z,21.15
2023-05-25T20:18:47.750Z,21.02
2023-05-25T20:21:15.738Z,21.08
2023-05-25T20:23:43.357Z,21.00
2023-05-25T20:26:10.504Z,21.05
2023-05-25T20:28:37.639Z,20.83
2023-05-25T20:31:06.760Z,20.78
2023-05-25T20:33:34.024Z,20.81
2023-05-25T20:36:01.472Z,20.79
2023-05-25T20:38:28.871Z,20.78
2023-05-25T20:40:56.226Z,20.77
2023-05-25T20:43:23.449Z,20.65
2023-05-25T20:45:50.665Z,20.52
2023-05-25T20:48:18.044Z,20.50
2023-05-25T20:50:45.437Z,20.49
2023-05-25T20:53:12.931Z,20.41
2023-05-25T20:55:41.002Z,20.42
2023-05-25T20:58:08.668Z,20.21
2023-05-25T21:00:36.740Z,20.01
2023-05-25T21:03:04.940Z,20.07
2023-05-25T21:05:33.911Z,20.07
2023-05-25T21:08:01.642Z,19.99
2023-05-25T21:10:29.969Z,19.91
2023-05-25T21:12:57.216Z,19.86
2023-05-25T21:15:26.541Z,19.84
2023-05-25T21:17:53.861Z,19.77
2023-05-25T21:20:21.503Z,19.74
2023-05-25T21:22:49.003Z,19.68
2023-05-25T21:25:16.991Z,19.58
2023-05-25T21:27:44.383Z,19.56
2023-05-25T21:30:12.241Z,19.42
2023-05-25T21:32:39.741Z,19.33
2023-05-25T21:35:11.559Z,19.20
2023-05-25T21:37:39.274Z,19.19
2023-05-25T21:40:09.875Z,19.06
2023-05-25T21:42:37.034Z,18.96
2023-05-25T21:45:04.779Z,18.91
2023-05-25T21:47:32.575Z,18.84
2023-05-25T21:49:59.831Z,18.80
2023-05-25T21:52:27.484Z,18.74
2023-05-25T21:54:55.560Z,18.63
2023-05-25T21:57:22.921Z,18.63
2023-05-25T21:59:50.744Z,18.51
2023-05-25T22:02:18.448Z,18.42
2023-05-25T22:04:48.195Z,18.31
2023-05-25T22:07:15.879Z,18.32
2023-05-25T22:09:43.265Z,18.30
2023-05-25T22:12:15.027Z,18.21
2023-05-25T22:14:42.262Z,18.18
2023-05-25T22:17:09.653Z,18.08
2023-05-25T22:19:36.932Z,18.01
2023-05-25T22:22:04.447Z,17.96
2023-05-25T22:24:32.013Z,17.89
2023-05-25T22:26:59.408Z,17.83
2023-05-25T22:29:26.600Z,17.79
2023-05-25T22:31:53.880Z,17.66
2023-05-25T22:34:21.251Z,17.60
2023-05-25T22:36:48.977Z,17.47
2023-05-25T22:39:16.520Z,17.53
2023-05-25T22:41:43.734Z,17.44
2023-05-25T22:44:10.972Z,17.40
2023-05-25T22:46:38.231Z,17.39
2023-05-25T22:49:05.546Z,17.36
2023-05-25T22:51:33.023Z,17.28
2023-05-25T22:54:00.991Z,17.21
2023-05-25T22:56:28.516Z,17.16
2023-05-25T22:58:56.092Z,17.16
2023-05-25T23:01:24.040Z,17.05
2023-05-25T23:03:51.625Z,17.00
2023-05-25T23:06:20.059Z,16.92
2023-05-25T23:08:47.606Z,16.88
2023-05-25T23:11:15.087Z,16.83
2023-05-25T23:13:42.853Z,16.81
2023-05-25T23:16:15.105Z,16.81
2023-05-25T23:18:42.766Z,16.75
2023-05-25T23:21:10.744Z,16.72
2023-05-25T23:23:38.414Z,16.64
2023-05-25T23:26:06.459Z,16.60
2023-05-25T23:28:33.685Z,16.56
2023-05-25T23:31:00.890Z,16.52
2023-05-25T23:33:29.221Z,16.45
2023-05-25T23:35:56.790Z,16.39
2023-05-25T23:38:24.001Z,16.45
2023-05-25T23:40:51.256Z,16.51
2023-05-25T23:43:18.492Z,16.50
2023-05-25T23:45:46.506Z,16.52
2023-05-25T23:48:14.425Z,16.51
2023-05-25T23:50:41.785Z,16.51
2023-05-25T23:53:09.208Z,16.52
2023-05-25T23:55:36.758Z,16.49
2023-05-25T23:58:04.526Z,16.39
